Terminal Aerodrome Forecast
Issued by NWS Lake Charles, LA

Home | Current Version | Previous Version | Text Only | Print | Product List | Glossary On
Versions: 1 2 3 4 5 6 7 8 9 10 11 12 13 14
000
FTUS44 KLCH 201100
TAFBPT
TAF
KBPT 201132Z 2012/2112 15005KT P6SM FEW035
     FM201700 18008KT P6SM VCSH SCT025 SCT045
      TEMPO 2018/2022 VRB12G18KT 3SM -TSRA BKN025CB
     FM202300 18009KT P6SM FEW045 BKN250=

USA.gov is the U.S. government's official web portal to all federal, state and local government web resources and services.